createdAt,value
2018-12-14T00:00:58.480Z,3.00
2018-12-14T00:03:29.163Z,3.07
2018-12-14T00:05:59.813Z,2.57
2018-12-14T00:08:28.634Z,3.63
2018-12-14T00:10:57.406Z,3.20
2018-12-14T00:13:26.118Z,3.17
2018-12-14T00:15:54.892Z,3.40
2018-12-14T00:18:23.574Z,2.87
2018-12-14T00:20:52.273Z,3.20
2018-12-14T00:23:21.115Z,2.77
2018-12-14T00:25:49.873Z,2.83
2018-12-14T00:28:18.542Z,3.03
2018-12-14T00:30:47.286Z,3.37
2018-12-14T00:33:15.990Z,3.20
2018-12-14T00:35:45.082Z,3.30
2018-12-14T00:38:13.747Z,4.40
2018-12-14T00:40:42.490Z,3.67
2018-12-14T00:43:11.334Z,3.60
2018-12-14T00:45:39.962Z,3.83
2018-12-14T00:48:08.794Z,3.33
2018-12-14T00:50:37.461Z,3.60
2018-12-14T00:53:06.276Z,3.97
2018-12-14T00:55:35.045Z,4.63
2018-12-14T00:58:03.909Z,4.00
2018-12-14T01:00:32.573Z,4.17
2018-12-14T01:03:02.091Z,4.17
2018-12-14T01:05:30.918Z,4.57
2018-12-14T01:07:59.725Z,4.90
2018-12-14T01:10:28.422Z,4.40
2018-12-14T01:12:59.119Z,5.03
2018-12-14T01:15:27.927Z,4.40
2018-12-14T01:17:56.683Z,4.20
2018-12-14T01:20:25.433Z,4.30
2018-12-14T01:22:54.143Z,4.90
2018-12-14T01:25:22.908Z,4.30
2018-12-14T01:27:51.628Z,3.97
2018-12-14T01:30:20.379Z,4.67
2018-12-14T01:32:49.127Z,4.50
2018-12-14T01:35:17.878Z,4.50
2018-12-14T01:37:46.666Z,4.30
2018-12-14T01:40:15.364Z,4.03
2018-12-14T01:42:44.037Z,4.17
2018-12-14T01:45:12.773Z,3.80
2018-12-14T01:47:41.493Z,4.50
2018-12-14T01:50:10.335Z,3.87
2018-12-14T01:52:39.317Z,4.40
2018-12-14T01:55:08.134Z,4.17
2018-12-14T01:57:37.057Z,4.60
2018-12-14T02:00:06.200Z,4.50
2018-12-14T02:02:35.002Z,4.80
2018-12-14T02:05:04.127Z,5.20
2018-12-14T02:07:33.078Z,4.67
2018-12-14T02:10:01.794Z,4.87
2018-12-14T02:12:30.876Z,4.37
2018-12-14T02:14:59.585Z,5.10
2018-12-14T02:17:28.250Z,4.80
2018-12-14T02:19:57.016Z,4.50
2018-12-14T02:22:25.724Z,4.50
2018-12-14T02:24:54.395Z,4.60
2018-12-14T02:27:23.130Z,5.27
2018-12-14T02:29:51.966Z,4.97
2018-12-14T02:32:20.690Z,4.40
2018-12-14T02:34:49.510Z,4.80
2018-12-14T02:37:18.230Z,5.00
2018-12-14T02:39:46.910Z,4.43
2018-12-14T02:42:19.231Z,5.67
2018-12-14T02:44:46.358Z,5.13
2018-12-14T02:47:22.966Z,4.97
2018-12-14T02:49:51.701Z,5.27
2018-12-14T02:52:20.335Z,5.23
2018-12-14T02:54:49.045Z,5.30
2018-12-14T02:57:17.827Z,5.47
2018-12-14T02:59:46.470Z,5.90
2018-12-14T03:02:15.244Z,5.30
2018-12-14T03:04:44.066Z,4.87
2018-12-14T03:07:12.851Z,6.07
2018-12-14T03:09:41.543Z,5.20
2018-12-14T03:12:10.271Z,5.10
2018-12-14T03:14:39.094Z,5.07
2018-12-14T03:17:07.936Z,4.70
2018-12-14T03:19:36.676Z,5.40
2018-12-14T03:22:05.418Z,5.53
2018-12-14T03:24:34.143Z,5.10
2018-12-14T03:27:03.000Z,5.00
2018-12-14T03:29:31.765Z,4.90
2018-12-14T03:32:00.508Z,5.33
2018-12-14T03:34:29.259Z,5.50
2018-12-14T03:36:57.967Z,4.90
2018-12-14T03:39:26.835Z,5.27
2018-12-14T03:41:55.647Z,5.10
2018-12-14T03:44:24.435Z,4.87
2018-12-14T03:46:53.225Z,5.40
2018-12-14T03:49:22.042Z,5.63
2018-12-14T03:51:50.748Z,5.63
2018-12-14T03:54:19.471Z,5.50
2018-12-14T03:56:48.194Z,5.20
2018-12-14T03:59:17.030Z,5.00
2018-12-14T04:01:45.774Z,5.93
2018-12-14T04:04:14.476Z,5.60
2018-12-14T04:06:43.199Z,5.10
2018-12-14T04:09:11.952Z,6.13
2018-12-14T04:11:40.786Z,6.03
2018-12-14T04:14:09.554Z,5.80
2018-12-14T04:16:38.298Z,6.03
2018-12-14T04:19:07.035Z,6.20
2018-12-14T04:21:35.686Z,5.20
2018-12-14T04:24:04.410Z,5.90
2018-12-14T04:26:33.111Z,4.90
2018-12-14T04:29:01.995Z,4.90
2018-12-14T04:31:30.766Z,5.33
2018-12-14T04:33:59.503Z,5.43
2018-12-14T04:36:28.202Z,4.93
2018-12-14T04:38:58.896Z,5.20
2018-12-14T04:41:27.602Z,6.07
2018-12-14T04:43:56.275Z,5.20
2018-12-14T04:46:25.040Z,5.17
2018-12-14T04:48:53.783Z,5.50
2018-12-14T04:51:22.436Z,5.27
2018-12-14T04:53:51.195Z,6.07
2018-12-14T04:56:19.919Z,5.20
2018-12-14T04:58:48.683Z,6.57
2018-12-14T05:01:17.483Z,5.70
2018-12-14T05:03:46.260Z,6.13
2018-12-14T05:06:14.999Z,5.80
2018-12-14T05:08:43.836Z,6.57
2018-12-14T05:11:12.600Z,5.80
2018-12-14T05:13:41.388Z,5.93
2018-12-14T05:16:10.120Z,5.50
2018-12-14T05:18:38.787Z,5.07
2018-12-14T05:21:07.576Z,5.33
2018-12-14T05:23:36.338Z,5.30
2018-12-14T05:26:05.133Z,5.20
2018-12-14T05:28:33.851Z,6.27
2018-12-14T05:31:02.531Z,5.03
2018-12-14T05:33:31.287Z,4.87
2018-12-14T05:35:59.955Z,6.60
2018-12-14T05:38:28.667Z,5.97
2018-12-14T05:40:57.407Z,5.70
2018-12-14T05:43:26.154Z,5.63
2018-12-14T05:45:54.920Z,5.47
2018-12-14T05:48:23.722Z,5.73
2018-12-14T05:50:52.399Z,5.30
2018-12-14T05:53:21.133Z,5.30
2018-12-14T05:55:49.798Z,5.60
2018-12-14T05:58:18.536Z,5.00
2018-12-14T06:00:47.358Z,5.50
2018-12-14T06:03:16.090Z,5.50
2018-12-14T06:05:44.878Z,5.50
2018-12-14T06:08:13.770Z,5.00
2018-12-14T06:10:42.481Z,5.10
2018-12-14T06:13:11.136Z,6.03
2018-12-14T06:15:39.842Z,5.93
2018-12-14T06:18:08.573Z,9.73
2018-12-14T06:20:37.284Z,6.63
2018-12-14T06:23:06.055Z,6.93
2018-12-14T06:25:34.698Z,6.53
2018-12-14T06:28:03.570Z,7.60
2018-12-14T06:30:32.397Z,7.07
2018-12-14T06:33:01.186Z,5.43
2018-12-14T06:35:29.979Z,5.87
2018-12-14T06:37:58.693Z,7.60
2018-12-14T06:40:27.486Z,7.10
2018-12-14T06:42:56.271Z,6.17
2018-12-14T06:45:24.955Z,7.83
2018-12-14T06:47:53.655Z,6.63
2018-12-14T06:50:23.335Z,6.07
2018-12-14T06:52:52.313Z,5.63
2018-12-14T06:55:21.159Z,5.67
2018-12-14T06:57:50.180Z,5.17
2018-12-14T07:00:18.941Z,5.90
2018-12-14T07:02:47.600Z,6.00
2018-12-14T07:05:16.399Z,5.80
2018-12-14T07:07:45.268Z,5.70
2018-12-14T07:10:14.126Z,5.83
2018-12-14T07:12:42.918Z,6.33
2018-12-14T07:15:11.740Z,6.73
2018-12-14T07:17:40.473Z,6.87
2018-12-14T07:20:09.223Z,6.07
2018-12-14T07:22:37.949Z,5.73
2018-12-14T07:25:06.787Z,5.30
2018-12-14T07:27:35.531Z,5.83
2018-12-14T07:30:04.707Z,6.53
2018-12-14T07:32:33.403Z,6.10
2018-12-14T07:35:02.118Z,6.20
2018-12-14T07:37:30.850Z,6.10
2018-12-14T07:39:59.563Z,6.17
2018-12-14T07:42:28.334Z,6.17
2018-12-14T07:44:57.076Z,6.20
2018-12-14T07:47:26.012Z,6.17
2018-12-14T07:49:54.790Z,7.20
2018-12-14T07:52:23.525Z,6.60
2018-12-14T07:54:52.203Z,6.53
2018-12-14T07:57:20.939Z,6.20
2018-12-14T07:59:49.707Z,6.93
2018-12-14T08:02:18.470Z,6.57
2018-12-14T08:04:47.180Z,7.00
2018-12-14T08:07:16.131Z,6.97
2018-12-14T08:09:44.922Z,6.30
2018-12-14T08:12:13.623Z,6.43
2018-12-14T08:14:42.399Z,6.40
2018-12-14T08:17:11.039Z,6.83
2018-12-14T08:19:39.883Z,7.10
2018-12-14T08:22:08.743Z,6.97
2018-12-14T08:24:37.499Z,6.80
2018-12-14T08:27:06.164Z,7.07
2018-12-14T08:29:34.966Z,6.13
2018-12-14T08:32:03.771Z,6.77
2018-12-14T08:34:33.574Z,6.47
2018-12-14T08:37:02.475Z,6.97
2018-12-14T08:39:31.286Z,7.33
2018-12-14T08:42:00.047Z,7.00
2018-12-14T08:44:28.813Z,6.90
2018-12-14T08:46:57.552Z,6.27
2018-12-14T08:49:26.240Z,6.80
2018-12-14T08:51:55.035Z,6.83
2018-12-14T08:54:23.798Z,6.83
2018-12-14T08:56:52.638Z,6.60
2018-12-14T08:59:21.519Z,7.87
2018-12-14T09:01:50.340Z,6.53
2018-12-14T09:04:19.115Z,6.70
2018-12-14T09:06:47.882Z,6.17
2018-12-14T09:09:16.692Z,6.73
2018-12-14T09:11:45.422Z,6.23
2018-12-14T09:14:14.230Z,6.17
2018-12-14T09:16:43.041Z,6.73
2018-12-14T09:19:11.818Z,6.60
2018-12-14T09:21:40.582Z,8.30
2018-12-14T09:24:09.391Z,8.17
2018-12-14T09:26:38.174Z,8.40
2018-12-14T09:29:07.148Z,7.30
2018-12-14T09:31:36.426Z,8.43
2018-12-14T09:34:05.201Z,6.53
2018-12-14T09:36:34.007Z,7.50
2018-12-14T09:39:04.083Z,8.40
2018-12-14T09:41:34.860Z,6.97
2018-12-14T09:44:03.763Z,6.77
2018-12-14T09:46:37.022Z,6.10
2018-12-14T09:49:03.288Z,7.30
2018-12-14T09:51:32.012Z,5.87
2018-12-14T09:54:00.806Z,6.07
2018-12-14T09:56:30.670Z,6.20
2018-12-14T09:58:59.391Z,5.07
2018-12-14T10:01:28.115Z,4.83
2018-12-14T10:03:56.970Z,5.87
2018-12-14T10:06:25.770Z,5.60
2018-12-14T10:08:54.552Z,4.93
2018-12-14T10:11:23.366Z,5.70
2018-12-14T10:13:52.107Z,4.80
2018-12-14T10:16:20.779Z,4.93
2018-12-14T10:18:50.055Z,4.90
2018-12-14T10:21:18.882Z,6.73
2018-12-14T10:23:47.748Z,5.43
2018-12-14T10:26:16.504Z,5.77
2018-12-14T10:28:45.195Z,5.70
2018-12-14T10:31:13.936Z,6.13
2018-12-14T10:33:42.830Z,5.63
2018-12-14T10:36:11.711Z,5.97
2018-12-14T10:38:40.426Z,6.00
2018-12-14T10:41:09.266Z,5.63
2018-12-14T10:43:38.032Z,6.00
2018-12-14T10:46:06.863Z,5.57
2018-12-14T10:48:35.662Z,5.70
2018-12-14T10:51:04.387Z,5.50
2018-12-14T10:53:33.110Z,5.67
2018-12-14T10:56:01.775Z,5.10
2018-12-14T10:58:30.505Z,4.87
2018-12-14T11:01:04.784Z,6.30
2018-12-14T11:03:33.551Z,5.20
2018-12-14T11:06:02.306Z,5.30
2018-12-14T11:08:31.106Z,6.13
2018-12-14T11:10:59.842Z,5.00
2018-12-14T11:13:28.622Z,7.37
2018-12-14T11:15:57.396Z,6.20
2018-12-14T11:18:26.111Z,6.17
2018-12-14T11:20:54.910Z,6.27
2018-12-14T11:23:23.627Z,5.60
2018-12-14T11:25:52.403Z,5.70
2018-12-14T11:28:21.102Z,6.30
2018-12-14T11:30:49.857Z,6.50
2018-12-14T11:33:18.623Z,5.57
2018-12-14T11:35:47.291Z,5.97
2018-12-14T11:38:16.087Z,6.00
2018-12-14T11:40:44.794Z,4.73
2018-12-14T11:43:13.575Z,6.03
2018-12-14T11:45:42.295Z,6.50
2018-12-14T11:48:10.943Z,5.67
2018-12-14T11:50:39.798Z,5.60
2018-12-14T11:53:08.478Z,6.70
2018-12-14T11:55:37.307Z,6.10
2018-12-14T11:58:06.015Z,6.67
2018-12-14T12:00:34.907Z,5.70
2018-12-14T12:03:03.727Z,5.83
2018-12-14T12:05:32.503Z,6.00
2018-12-14T12:08:01.625Z,6.00
2018-12-14T12:10:30.489Z,6.67
2018-12-14T12:12:59.237Z,6.03
2018-12-14T12:15:27.962Z,6.63
2018-12-14T12:17:56.737Z,6.33
2018-12-14T12:20:25.500Z,6.67
2018-12-14T12:22:54.282Z,6.43
2018-12-14T12:25:23.053Z,6.47
2018-12-14T12:27:51.795Z,7.10
2018-12-14T12:30:20.599Z,7.10
2018-12-14T12:32:49.312Z,6.50
2018-12-14T12:35:18.127Z,7.57
2018-12-14T12:37:46.858Z,7.23
2018-12-14T12:40:15.514Z,7.40
2018-12-14T12:42:44.222Z,6.50
2018-12-14T12:45:12.954Z,6.77
2018-12-14T12:47:41.808Z,6.27
2018-12-14T12:50:10.587Z,5.93
2018-12-14T12:52:39.303Z,6.77
2018-12-14T12:55:08.059Z,5.97
2018-12-14T12:57:36.846Z,7.13
2018-12-14T13:00:06.189Z,7.40
2018-12-14T13:02:34.898Z,6.90
2018-12-14T13:05:03.666Z,6.80
2018-12-14T13:07:32.417Z,7.20
2018-12-14T13:10:01.253Z,7.20
2018-12-14T13:12:31.402Z,7.10
2018-12-14T13:15:00.202Z,7.60
2018-12-14T13:17:28.851Z,7.13
2018-12-14T13:19:57.597Z,7.30
2018-12-14T13:22:26.394Z,7.63
2018-12-14T13:24:55.151Z,5.63
2018-12-14T13:27:23.971Z,7.20
2018-12-14T13:29:52.694Z,7.50
2018-12-14T13:32:21.466Z,6.40
2018-12-14T13:34:50.287Z,6.80
2018-12-14T13:37:19.059Z,7.20
2018-12-14T13:39:48.882Z,7.10
2018-12-14T13:42:17.542Z,6.50
2018-12-14T13:44:46.831Z,7.83
2018-12-14T13:47:15.723Z,7.63
2018-12-14T13:49:44.498Z,8.23
2018-12-14T13:52:13.223Z,6.90
2018-12-14T13:54:42.028Z,6.67
2018-12-14T13:57:10.762Z,7.53
2018-12-14T13:59:39.642Z,7.37
2018-12-14T14:02:08.507Z,7.30
2018-12-14T14:04:37.230Z,7.00
2018-12-14T14:07:06.057Z,8.40
2018-12-14T14:09:34.943Z,7.23
2018-12-14T14:12:03.743Z,7.60
2018-12-14T14:14:32.534Z,7.43
2018-12-14T14:17:01.727Z,6.87
2018-12-14T14:19:30.751Z,7.90
2018-12-14T14:21:59.563Z,7.57
2018-12-14T14:24:28.241Z,7.20
2018-12-14T14:26:56.952Z,7.70
2018-12-14T14:29:25.735Z,8.53
2018-12-14T14:31:54.479Z,7.90
2018-12-14T14:34:23.270Z,7.83
2018-12-14T14:36:52.059Z,8.77
2018-12-14T14:39:20.766Z,8.77
2018-12-14T14:41:49.531Z,7.90
2018-12-14T14:44:18.275Z,9.00
2018-12-14T14:46:47.036Z,7.47
2018-12-14T14:49:15.830Z,7.80
2018-12-14T14:51:44.898Z,8.17
2018-12-14T14:54:13.719Z,8.10
2018-12-14T14:56:42.574Z,8.43
2018-12-14T14:59:11.356Z,8.50
2018-12-14T15:01:40.175Z,8.63
2018-12-14T15:04:08.903Z,8.30
2018-12-14T15:06:37.727Z,8.70
2018-12-14T15:09:08.733Z,8.20
2018-12-14T15:11:38.511Z,9.30
2018-12-14T15:14:07.320Z,7.97
2018-12-14T15:16:36.160Z,9.23
2018-12-14T15:19:04.882Z,9.27
2018-12-14T15:21:33.598Z,9.20
2018-12-14T15:24:02.423Z,9.40
2018-12-14T15:26:31.147Z,11.63
2018-12-14T15:28:59.868Z,8.40
2018-12-14T15:31:28.695Z,9.00
2018-12-14T15:33:57.519Z,9.57
2018-12-14T15:36:26.338Z,9.17
2018-12-14T15:38:55.110Z,9.03
2018-12-14T15:41:23.858Z,8.93
2018-12-14T15:43:52.709Z,8.90
2018-12-14T15:46:21.502Z,9.17
2018-12-14T15:48:50.413Z,8.60
2018-12-14T15:51:19.171Z,9.17
2018-12-14T15:53:47.939Z,10.03
2018-12-14T15:56:16.702Z,9.20
2018-12-14T15:58:45.494Z,9.90
2018-12-14T16:01:14.330Z,11.13
2018-12-14T16:03:43.086Z,9.80
2018-12-14T16:06:11.859Z,10.17
2018-12-14T16:08:40.591Z,9.40
2018-12-14T16:11:09.278Z,9.47
2018-12-14T16:13:38.027Z,10.30
2018-12-14T16:16:06.855Z,10.20
2018-12-14T16:18:36.327Z,10.97
2018-12-14T16:21:05.230Z,11.70
2018-12-14T16:23:34.044Z,10.60
2018-12-14T16:26:02.887Z,9.60
2018-12-14T16:28:31.713Z,10.40
2018-12-14T16:31:00.503Z,10.70
2018-12-14T16:33:29.831Z,10.47
2018-12-14T16:35:58.630Z,9.80
2018-12-14T16:38:27.330Z,9.93
2018-12-14T16:40:56.159Z,9.77
2018-12-14T16:43:24.941Z,10.10
2018-12-14T16:45:54.771Z,11.03
2018-12-14T16:48:23.541Z,9.77
2018-12-14T16:50:52.316Z,10.80
2018-12-14T16:53:21.049Z,10.30
2018-12-14T16:55:49.817Z,12.63
2018-12-14T16:58:18.502Z,10.10
2018-12-14T17:00:47.378Z,10.47
2018-12-14T17:03:16.198Z,11.03
2018-12-14T17:05:45.018Z,10.80
2018-12-14T17:08:14.064Z,10.67
2018-12-14T17:10:42.814Z,11.40
2018-12-14T17:13:11.599Z,10.63
2018-12-14T17:15:40.386Z,11.57
2018-12-14T17:18:09.087Z,11.23
2018-12-14T17:20:37.802Z,10.80
2018-12-14T17:23:06.631Z,12.40
2018-12-14T17:25:35.442Z,11.67
2018-12-14T17:28:04.223Z,12.00
2018-12-14T17:30:33.074Z,12.00
2018-12-14T17:33:01.858Z,19.27
2018-12-14T17:35:30.630Z,12.87
2018-12-14T17:37:59.425Z,12.20
2018-12-14T17:40:30.156Z,10.80
2018-12-14T17:42:59.239Z,12.20
2018-12-14T17:45:28.041Z,11.70
2018-12-14T17:47:56.789Z,12.60
2018-12-14T17:50:25.503Z,12.93
2018-12-14T17:52:54.182Z,12.20
2018-12-14T17:55:22.958Z,15.00
2018-12-14T17:57:51.707Z,12.33
2018-12-14T18:00:20.531Z,12.10
2018-12-14T18:02:49.259Z,13.00
2018-12-14T18:05:19.063Z,14.07
2018-12-14T18:07:47.920Z,13.03
2018-12-14T18:10:16.634Z,14.93
2018-12-14T18:12:45.323Z,14.53
2018-12-14T18:15:14.071Z,14.67
2018-12-14T18:17:42.830Z,13.47
2018-12-14T18:20:11.618Z,14.73
2018-12-14T18:22:40.511Z,15.10
2018-12-14T18:25:09.663Z,16.17
2018-12-14T18:27:38.395Z,14.93
2018-12-14T18:30:08.314Z,15.00
2018-12-14T18:32:37.039Z,16.80
2018-12-14T18:35:07.133Z,16.20
2018-12-14T18:37:36.009Z,17.13
2018-12-14T18:40:06.110Z,16.97
2018-12-14T18:42:34.829Z,17.20
2018-12-14T18:45:03.981Z,17.00
2018-12-14T18:47:32.837Z,17.30
2018-12-14T18:50:01.583Z,16.47
2018-12-14T18:52:31.450Z,16.43
2018-12-14T18:55:00.116Z,18.10
2018-12-14T18:57:28.868Z,17.67
2018-12-14T18:59:57.602Z,18.47
2018-12-14T19:02:26.434Z,19.00
2018-12-14T19:04:55.110Z,18.30
2018-12-14T19:07:23.902Z,19.60
2018-12-14T19:09:53.287Z,17.50
2018-12-14T19:12:22.268Z,16.47
2018-12-14T19:14:51.127Z,17.97
2018-12-14T19:17:19.891Z,18.30
2018-12-14T19:19:48.576Z,18.00
2018-12-14T19:22:17.343Z,18.50
2018-12-14T19:24:46.067Z,18.17
2018-12-14T19:27:14.823Z,17.80
2018-12-14T19:29:43.617Z,18.57
2018-12-14T19:32:12.408Z,18.00
2018-12-14T19:34:41.124Z,17.60
2018-12-14T19:37:09.918Z,17.50
2018-12-14T19:39:38.603Z,17.30
2018-12-14T19:42:07.386Z,17.87
2018-12-14T19:44:36.459Z,17.50
2018-12-14T19:47:06.242Z,17.80
2018-12-14T19:49:35.215Z,17.90
2018-12-14T19:52:04.043Z,18.80
2018-12-14T19:54:33.114Z,19.90
2018-12-14T19:57:02.086Z,18.83
2018-12-14T19:59:30.803Z,19.00
2018-12-14T20:01:59.577Z,17.63
2018-12-14T20:04:28.294Z,17.53
2018-12-14T20:06:57.134Z,17.77
2018-12-14T20:09:26.120Z,17.90
2018-12-14T20:11:54.894Z,17.83
2018-12-14T20:14:23.674Z,16.20
2018-12-14T20:16:52.399Z,17.53
2018-12-14T20:19:21.204Z,16.80
2018-12-14T20:21:49.976Z,17.47
2018-12-14T20:24:18.694Z,19.13
2018-12-14T20:26:47.463Z,17.90
2018-12-14T20:29:16.166Z,17.50
2018-12-14T20:31:44.945Z,16.97
2018-12-14T20:34:13.723Z,16.00
2018-12-14T20:36:42.470Z,17.17
2018-12-14T20:39:11.199Z,17.63
2018-12-14T20:41:39.968Z,17.60
2018-12-14T20:44:08.678Z,16.93
2018-12-14T20:46:37.470Z,18.17
2018-12-14T20:49:06.255Z,16.47
2018-12-14T20:51:35.062Z,16.00
2018-12-14T20:54:04.034Z,16.30
2018-12-14T20:56:32.939Z,16.93
2018-12-14T20:59:01.628Z,15.83
2018-12-14T21:01:30.442Z,16.13
2018-12-14T21:03:59.195Z,16.60
2018-12-14T21:06:27.895Z,14.50
2018-12-14T21:08:56.614Z,16.53
2018-12-14T21:11:25.359Z,16.17
2018-12-14T21:13:54.134Z,16.63
2018-12-14T21:16:25.885Z,15.90
2018-12-14T21:18:53.654Z,16.07
2018-12-14T21:21:22.400Z,16.57
2018-12-14T21:23:51.244Z,14.77
2018-12-14T21:26:20.779Z,16.03
2018-12-14T21:28:49.542Z,18.10
2018-12-14T21:31:18.218Z,15.73
2018-12-14T21:33:46.939Z,15.80
2018-12-14T21:36:15.743Z,15.10
2018-12-14T21:38:44.414Z,16.07
2018-12-14T21:41:13.175Z,16.20
2018-12-14T21:43:41.918Z,16.00
2018-12-14T21:46:10.730Z,15.47
2018-12-14T21:48:39.483Z,14.53
2018-12-14T21:51:08.220Z,15.63
2018-12-14T21:53:36.962Z,15.47
2018-12-14T21:56:05.762Z,15.67
2018-12-14T21:58:34.572Z,14.43
2018-12-14T22:01:03.385Z,13.63
2018-12-14T22:03:32.076Z,15.20
2018-12-14T22:06:00.907Z,15.63
2018-12-14T22:08:29.790Z,13.87
2018-12-14T22:10:58.611Z,13.83
2018-12-14T22:13:27.414Z,12.80
2018-12-14T22:15:56.098Z,14.23
2018-12-14T22:18:24.822Z,13.40
2018-12-14T22:20:53.522Z,14.67
2018-12-14T22:23:22.274Z,13.10
2018-12-14T22:25:51.018Z,15.30
2018-12-14T22:28:19.819Z,14.00
2018-12-14T22:30:48.562Z,12.40
2018-12-14T22:33:17.290Z,13.10
2018-12-14T22:35:46.091Z,12.23
2018-12-14T22:38:14.917Z,13.57
2018-12-14T22:40:43.628Z,13.10
2018-12-14T22:43:12.422Z,13.03
2018-12-14T22:45:41.182Z,13.60
2018-12-14T22:48:09.874Z,12.93
2018-12-14T22:50:38.623Z,13.00
2018-12-14T22:53:07.347Z,13.13
2018-12-14T22:55:36.051Z,13.57
2018-12-14T22:58:04.812Z,12.87
2018-12-14T23:00:35.556Z,12.00
2018-12-14T23:03:06.210Z,11.70
2018-12-14T23:05:34.991Z,12.23
2018-12-14T23:08:03.738Z,12.30
2018-12-14T23:10:32.466Z,11.77
2018-12-14T23:13:03.250Z,12.50
2018-12-14T23:15:32.018Z,12.27
2018-12-14T23:18:00.792Z,11.93
2018-12-14T23:20:29.678Z,12.47
2018-12-14T23:22:58.481Z,12.07
2018-12-14T23:25:27.320Z,12.20
2018-12-14T23:27:56.227Z,11.90
2018-12-14T23:30:25.071Z,11.93
2018-12-14T23:32:53.815Z,12.37
2018-12-14T23:35:22.576Z,12.37
2018-12-14T23:37:51.330Z,11.10
2018-12-14T23:40:20.122Z,11.80
2018-12-14T23:42:48.888Z,11.10
2018-12-14T23:45:17.641Z,11.30
2018-12-14T23:47:46.373Z,11.50
2018-12-14T23:50:15.071Z,12.10
2018-12-14T23:52:43.859Z,11.97
2018-12-14T23:55:12.646Z,10.60
2018-12-14T23:57:41.426Z,11.97
